Time;durP1;ratioP1;P1;durP2;ratioP2;P2;SDS_P1;SDS_P2;PMS_P1;PMS_P2;Temp;Humidity;BMP_temperature;BMP_pressure;BME280_temperature;BME280_humidity;BME280_pressure;Samples;Min_cycle;Max_cycle;Signal;HPM_P1;HPM_P2
2022/09/24 00:04:24;;;;;;;7.10;4.40;;;;;;;16.63;39.87;100229.75;10068364;29;20233;-81
2022/09/24 00:09:46;;;;;;;5.73;3.87;;;;;;;16.41;39.75;100222.81;10110356;29;20202;-81
2022/09/24 00:15:08;;;;;;;4.70;3.83;;;;;;;15.70;41.27;100227.09;10116941;29;20224;-82
2022/09/24 00:20:31;;;;;;;7.07;3.87;;;;;;;16.05;40.83;100222.13;10092729;29;20201;-81
2022/09/24 00:31:34;;;;;;;5.35;4.10;;;;;;;16.04;40.39;100229.00;10129767;29;20198;-81
2022/09/24 00:36:56;;;;;;;9.60;4.87;;;;;;;16.43;39.75;100221.25;10106448;29;20544;-82
2022/09/24 00:42:19;;;;;;;6.37;4.63;;;;;;;16.38;40.17;100229.28;10102745;29;20269;-80
2022/09/24 00:47:43;;;;;;;11.57;5.83;;;;;;;15.88;41.36;100222.59;10105520;29;20235;-83
2022/09/24 00:53:13;;;;;;;10.30;5.97;;;;;;;16.11;42.00;100214.94;10105558;29;20592;-82
2022/09/24 00:58:35;;;;;;;7.90;5.60;;;;;;;16.17;41.73;100219.09;10104483;29;20269;-82
2022/09/24 01:03:58;;;;;;;7.43;5.47;;;;;;;16.33;41.32;100215.38;10100025;29;20689;-80
2022/09/24 01:09:21;;;;;;;7.57;5.60;;;;;;;16.38;41.17;100215.06;10096755;29;20261;-80
2022/09/24 01:14:54;;;;;;;13.73;6.47;;;;;;;16.87;40.55;100213.09;10122744;29;20634;-82
2022/09/24 01:20:19;;;;;;;13.80;6.60;;;;;;;16.75;40.98;100207.59;10130311;29;20714;-80
2022/09/24 01:26:00;;;;;;;8.27;6.17;;;;;;;16.98;40.82;100195.38;10098767;29;20258;-80
2022/09/24 01:31:27;;;;;;;9.40;6.53;;;;;;;16.51;41.87;100208.00;10105029;29;20198;-79
2022/09/24 01:36:49;;;;;;;14.10;7.33;;;;;;;16.13;43.35;100206.88;10091045;29;20213;-79
2022/09/24 01:42:12;;;;;;;12.15;7.65;;;;;;;15.78;44.34;100211.81;10104418;29;20214;-79
2022/09/24 01:47:38;;;;;;;12.60;7.40;;;;;;;16.52;42.79;100206.78;10090824;29;20214;-80
2022/09/24 01:53:16;;;;;;;14.20;8.80;;;;;;;16.49;43.12;100202.69;10104313;29;20189;-79
2022/09/24 01:58:44;;;;;;;11.30;8.20;;;;;;;16.74;42.54;100203.13;10104177;29;20667;-79
2022/09/24 02:04:15;;;;;;;11.18;9.85;;;;;;;16.89;42.81;100193.59;10100126;29;20226;-79
2022/09/24 02:09:40;;;;;;;15.47;10.23;;;;;;;16.30;44.07;100187.69;10099012;29;20202;-79
2022/09/24 02:15:26;;;;;;;12.53;10.40;;;;;;;16.91;42.91;100182.66;10100921;29;20218;-79
2022/09/24 02:20:50;;;;;;;13.40;10.17;;;;;;;16.35;44.47;100181.69;10099271;29;20201;-79
2022/09/24 02:26:12;;;;;;;15.70;10.80;;;;;;;16.27;44.71;100177.09;10101921;29;20230;-79
2022/09/24 02:31:38;;;;;;;14.15;11.02;;;;;;;16.48;43.96;100178.28;10099730;29;20206;-79
2022/09/24 02:37:06;;;;;;;15.70;10.53;;;;;;;16.52;44.76;100166.97;10102171;29;20194;-79
2022/09/24 02:42:30;;;;;;;17.80;11.40;;;;;;;16.42;44.93;100164.72;10102830;29;20620;-79
2022/09/24 02:47:53;;;;;;;14.97;10.90;;;;;;;16.47;44.72;100167.28;10102430;29;20194;-79
2022/09/24 02:53:15;;;;;;;13.88;10.70;;;;;;;15.88;46.31;100160.06;10089081;29;20194;-79
2022/09/24 02:58:37;;;;;;;14.03;10.60;;;;;;;16.58;44.70;100157.72;10102653;29;20242;-79
2022/09/24 03:03:59;;;;;;;15.68;10.80;;;;;;;15.98;46.78;100167.16;10088757;29;20229;-79
2022/09/24 03:09:21;;;;;;;13.40;10.95;;;;;;;16.42;44.98;100161.88;10083027;29;20485;-79
2022/09/24 03:14:43;;;;;;;17.67;11.70;;;;;;;15.80;46.27;100159.09;10101948;29;20210;-79
2022/09/24 03:20:06;;;;;;;14.23;11.13;;;;;;;16.19;45.13;100159.84;10100681;29;20206;-79
2022/09/24 03:25:28;;;;;;;14.97;12.07;;;;;;;16.30;44.97;100154.38;10100852;29;20556;-79
2022/09/24 03:30:59;;;;;;;14.23;10.52;;;;;;;15.72;46.07;100145.94;10088078;29;20194;-79
2022/09/24 03:36:23;;;;;;;11.63;9.37;;;;;;;15.13;47.78;100151.94;10100795;29;20198;-79
2022/09/24 03:41:45;;;;;;;14.10;9.50;;;;;;;15.09;47.96;100151.06;10103518;29;20507;-78
2022/09/24 03:47:07;;;;;;;12.50;9.83;;;;;;;15.70;47.00;100133.31;10092737;29;20197;-78
2022/09/24 03:52:29;;;;;;;16.90;10.03;;;;;;;15.44;48.58;100134.78;10096378;29;20198;-79
2022/09/24 03:57:51;;;;;;;15.27;10.63;;;;;;;16.04;47.63;100123.81;10100207;29;20190;-79
2022/09/24 04:03:13;;;;;;;15.70;10.80;;;;;;;15.58;49.38;100119.28;10086043;29;20246;-79
2022/09/24 04:08:35;;;;;;;17.10;12.07;;;;;;;15.23;49.88;100128.66;10100340;29;20246;-79
2022/09/24 04:13:58;;;;;;;18.13;12.17;;;;;;;15.81;48.90;100117.28;10086545;29;20226;-79
2022/09/24 04:19:19;;;;;;;13.63;12.07;;;;;;;16.07;48.63;100103.16;10060773;29;20275;-79
2022/09/24 04:24:41;;;;;;;17.40;13.27;;;;;;;16.08;48.55;100110.50;10073379;29;20236;-79
2022/09/24 04:30:04;;;;;;;19.33;13.77;;;;;;;16.15;47.94;100106.94;10077200;29;20249;-79
2022/09/24 04:35:28;;;;;;;17.03;13.23;;;;;;;16.01;49.18;100107.53;10111893;29;20201;-79
2022/09/24 04:40:50;;;;;;;16.70;12.83;;;;;;;15.21;50.88;100108.34;10111473;29;20189;-80
2022/09/24 04:46:12;;;;;;;17.13;12.70;;;;;;;15.74;49.52;100105.81;10099090;29;20540;-79
2022/09/24 04:51:35;;;;;;;16.87;12.83;;;;;;;15.79;49.00;100123.34;10111603;29;20504;-82
2022/09/24 04:56:57;;;;;;;15.13;12.67;;;;;;;15.48;50.44;100112.16;10087647;29;20213;-82
2022/09/24 05:02:19;;;;;;;18.60;13.95;;;;;;;15.31;50.05;100110.56;10126323;29;20273;-82
2022/09/24 05:07:43;;;;;;;18.73;14.70;;;;;;;15.17;50.86;100110.28;10087048;29;20739;-81
2022/09/24 05:13:05;;;;;;;18.87;14.83;;;;;;;15.37;49.99;100111.91;10101784;29;20230;-82
2022/09/24 05:18:28;;;;;;;18.43;14.80;;;;;;;15.80;48.75;100112.81;10114791;29;20205;-81
2022/09/24 05:23:50;;;;;;;22.37;15.90;;;;;;;15.75;48.92;100104.59;10139108;29;20298;-79
2022/09/24 05:29:12;;;;;;;23.93;15.43;;;;;;;15.87;48.48;100104.44;10105829;29;20262;-80
2022/09/24 05:34:34;;;;;;;18.75;15.45;;;;;;;15.55;48.52;100105.81;10109943;29;20213;-80
2022/09/24 05:40:46;;;;;;;19.10;16.20;;;;;;;15.81;48.21;100105.91;10105540;29;20201;-80
2022/09/24 05:45:38;;;;;;;18.50;13.60;;;;;;;15.60;47.75;100103.50;10093179;29;20230;-80
2022/09/24 05:51:01;;;;;;;19.10;13.30;;;;;;;15.29;48.07;100107.28;10091183;29;20198;-80
2022/09/24 05:56:23;;;;;;;15.35;12.75;;;;;;;14.72;49.00;100113.69;10138478;29;20658;-79
2022/09/24 06:01:45;;;;;;;15.10;12.63;;;;;;;16.13;45.79;100104.50;10122496;29;20209;-80
2022/09/24 06:07:07;;;;;;;17.20;13.20;;;;;;;16.05;46.80;100108.41;10111942;29;20217;-80
2022/09/24 06:12:29;;;;;;;15.15;12.18;;;;;;;14.77;49.64;100113.41;10100749;29;20194;-79
2022/09/24 06:17:53;;;;;;;19.03;12.27;;;;;;;15.50;47.69;100104.91;10115176;29;20221;-80
2022/09/24 06:23:15;;;;;;;22.83;12.17;;;;;;;15.41;47.81;100104.28;10134289;29;20268;-80
2022/09/24 06:28:38;;;;;;;15.27;11.97;;;;;;;15.86;46.27;100117.81;10135049;29;20210;-79
2022/09/24 06:34:01;;;;;;;15.93;11.83;;;;;;;16.08;45.82;100121.88;10124322;29;20231;-80
2022/09/24 06:39:24;;;;;;;18.65;12.40;;;;;;;15.93;46.67;100128.47;10119927;29;20602;-80
2022/09/24 06:44:47;;;;;;;16.25;11.90;;;;;;;16.42;45.96;100134.25;10111290;29;20229;-80
2022/09/24 06:50:09;;;;;;;15.97;11.80;;;;;;;16.46;44.96;100134.34;10122269;29;20245;-79
2022/09/24 06:55:34;;;;;;;14.97;11.83;;;;;;;15.44;47.83;100134.78;10119013;29;20209;-81
2022/09/24 07:00:58;;;;;;;18.17;12.80;;;;;;;15.67;47.95;100139.75;10120376;29;20257;-80
2022/09/24 07:06:20;;;;;;;17.03;13.20;;;;;;;16.21;46.23;100139.56;10117612;29;20253;-79
2022/09/24 07:11:44;;;;;;;13.60;11.03;;;;;;;16.08;46.02;100147.44;10127056;29;20592;-79
2022/09/24 07:17:07;;;;;;;14.97;11.33;;;;;;;16.34;45.65;100143.88;10133352;29;20205;-80
2022/09/24 07:22:29;;;;;;;14.10;10.63;;;;;;;15.71;47.94;100149.16;10136350;29;20680;-80
2022/09/24 07:27:51;;;;;;;15.97;11.73;;;;;;;16.77;44.94;100159.66;10134956;29;20523;-82
2022/09/24 07:33:13;;;;;;;15.87;12.40;;;;;;;16.22;47.64;100161.13;10131382;29;20535;-80
2022/09/24 07:38:35;;;;;;;14.63;12.52;;;;;;;16.86;46.06;100163.06;10126568;29;20256;-80
2022/09/24 07:43:57;;;;;;;17.37;12.37;;;;;;;17.06;45.17;100163.78;10109652;29;20540;-80
2022/09/24 07:49:20;;;;;;;15.38;11.93;;;;;;;17.05;45.41;100169.88;10121099;29;20872;-79
2022/09/24 07:54:42;;;;;;;14.60;11.13;;;;;;;17.23;43.65;100176.63;10127944;29;20246;-80
2022/09/24 08:00:05;;;;;;;16.63;12.43;;;;;;;17.08;45.08;100169.91;10150594;29;20205;-81
2022/09/24 08:05:27;;;;;;;14.82;10.98;;;;;;;17.59;43.87;100167.34;10102169;29;20619;-80
2022/09/24 08:10:49;;;;;;;13.37;10.37;;;;;;;17.30;44.22;100176.75;10112515;29;20611;-80
2022/09/24 08:16:11;;;;;;;13.37;10.30;;;;;;;17.68;43.29;100161.41;10115761;29;20287;-80
2022/09/24 08:21:33;;;;;;;13.40;10.00;;;;;;;17.33;44.94;100169.44;10128654;29;20520;-81
2022/09/24 08:26:57;;;;;;;13.50;9.57;;;;;;;17.12;44.99;100178.50;10095308;29;20304;-80
2022/09/24 08:32:19;;;;;;;14.60;8.50;;;;;;;18.15;42.19;100169.28;10125393;29;20257;-80
2022/09/24 08:37:41;;;;;;;10.65;7.07;;;;;;;18.27;41.75;100173.88;10106548;29;20226;-75
2022/09/24 08:43:15;;;;;;;12.67;8.10;;;;;;;17.60;43.01;100176.72;10120957;29;20274;-82
2022/09/24 08:48:39;;;;;;;8.40;6.73;;;;;;;17.78;40.45;100169.28;10119726;29;20600;-80
2022/09/24 08:54:08;;;;;;;9.43;7.20;;;;;;;17.99;41.95;100172.34;10146610;29;20229;-84
2022/09/24 08:59:36;;;;;;;8.43;7.00;;;;;;;17.89;40.90;100175.09;10071176;29;20776;-84
2022/09/24 09:05:13;;;;;;;8.13;6.68;;;;;;;18.38;40.54;100176.84;10084872;29;20312;-82
2022/09/24 09:10:38;;;;;;;9.45;7.43;;;;;;;18.05;42.28;100181.41;10060604;29;20289;-83
2022/09/24 09:16:05;;;;;;;10.88;6.85;;;;;;;18.28;41.80;100179.22;10071367;29;20587;-83
2022/09/24 09:21:41;;;;;;;10.63;7.32;;;;;;;18.12;40.46;100175.75;10076283;29;20359;-83
2022/09/24 09:27:11;;;;;;;11.95;7.93;;;;;;;17.88;41.87;100187.69;10089113;29;21036;-83
2022/09/24 09:32:32;;;;;;;12.13;8.45;;;;;;;18.50;41.26;100179.41;10072872;29;20226;-84
2022/09/24 09:38:02;;;;;;;10.80;7.67;;;;;;;18.82;40.50;100180.53;10080303;29;20234;-83
2022/09/24 09:43:25;;;;;;;13.85;8.48;;;;;;;18.63;40.30;100187.28;10068873;29;20233;-81
2022/09/24 09:48:55;;;;;;;10.75;8.98;;;;;;;17.97;41.36;100182.50;10076682;29;20304;-81
2022/09/24 09:54:17;;;;;;;11.50;8.68;;;;;;;17.36;43.11;100185.78;10089446;29;20895;-81
2022/09/24 09:59:39;;;;;;;10.95;8.50;;;;;;;18.31;40.57;100178.44;10070389;29;20244;-79
2022/09/24 10:05:03;;;;;;;10.23;7.47;;;;;;;18.84;39.64;100175.25;10079163;29;20258;-80
2022/09/24 10:10:27;;;;;;;9.53;7.70;;;;;;;19.20;39.32;100175.50;10086367;29;20628;-81
2022/09/24 10:15:52;;;;;;;10.73;8.20;;;;;;;19.16;39.14;100178.34;10076109;29;20246;-80
2022/09/24 10:21:25;;;;;;;13.63;9.38;;;;;;;17.84;42.07;100175.44;10082261;29;20225;-82
2022/09/24 10:26:47;;;;;;;13.60;8.98;;;;;;;18.10;40.89;100171.66;10077712;29;20265;-79
2022/09/24 10:32:18;;;;;;;10.87;8.27;;;;;;;18.66;39.28;100177.94;10083522;29;20229;-79
2022/09/24 10:37:49;;;;;;;10.50;8.25;;;;;;;17.61;40.56;100184.09;10084866;29;20241;-80
2022/09/24 10:43:18;;;;;;;10.27;8.40;;;;;;;18.79;38.49;100175.59;10076174;29;20234;-79
2022/09/24 10:48:56;;;;;;;9.15;7.57;;;;;;;18.80;39.59;100182.13;10071836;29;20221;-77
2022/09/24 10:54:24;;;;;;;12.43;7.75;;;;;;;18.94;39.70;100177.38;10075865;29;20227;-80
2022/09/24 11:00:10;;;;;;;7.75;5.88;;;;;;;18.52;38.25;100185.56;10069677;29;20242;-81
2022/09/24 11:05:36;;;;;;;8.05;6.60;;;;;;;19.21;37.06;100177.16;10073595;29;20344;-80
2022/09/24 11:11:04;;;;;;;10.05;8.05;;;;;;;18.66;39.19;100177.13;10075848;29;20229;-81
2022/09/24 11:16:46;;;;;;;11.60;7.55;;;;;;;19.08;36.99;100176.66;10076984;29;20242;-80
2022/09/24 11:22:31;;;;;;;7.82;6.35;;;;;;;19.69;38.38;100167.22;10086854;29;20237;-80
2022/09/24 11:27:53;;;;;;;7.65;6.47;;;;;;;19.20;37.26;100172.66;10081533;29;20318;-79
2022/09/24 11:33:27;;;;;;;8.85;6.55;;;;;;;19.84;36.68;100167.28;10079219;29;20606;-82
2022/09/24 11:38:52;;;;;;;9.80;7.15;;;;;;;19.13;38.48;100166.91;10082552;29;20234;-80
2022/09/24 11:44:35;;;;;;;9.88;7.97;;;;;;;18.80;39.58;100177.25;10075522;29;20283;-81
2022/09/24 11:50:11;;;;;;;9.27;7.95;;;;;;;19.04;39.20;100170.91;10068355;29;20230;-80
2022/09/24 11:55:57;;;;;;;9.90;8.63;;;;;;;18.76;40.41;100176.38;10070847;29;20273;-80
2022/09/24 12:01:26;;;;;;;9.70;6.95;;;;;;;18.11;41.05;100174.09;10070136;29;20234;-81
2022/09/24 12:06:59;;;;;;;8.20;6.88;;;;;;;18.88;40.37;100173.22;10078565;29;20560;-81
2022/09/24 12:12:53;;;;;;;9.20;7.75;;;;;;;17.79;41.88;100181.50;10076201;29;20222;-80
2022/09/24 12:18:22;;;;;;;9.23;7.95;;;;;;;18.36;41.02;100173.56;10070579;29;20237;-81
2022/09/24 12:23:46;;;;;;;9.23;7.80;;;;;;;18.83;39.82;100175.63;10081096;29;20613;-81
2022/09/24 12:35:12;;;;;;;8.45;7.35;;;;;;;18.61;39.59;100171.78;10080166;29;20226;-81
2022/09/24 12:40:48;;;;;;;10.25;8.40;;;;;;;18.30;41.08;100171.09;10078391;29;20289;-82
2022/09/24 12:46:22;;;;;;;10.13;8.20;;;;;;;19.12;39.42;100173.84;10066049;29;20711;-81
2022/09/24 12:51:44;;;;;;;10.13;8.82;;;;;;;17.81;41.30;100177.06;10098547;29;20274;-81
2022/09/24 12:57:23;;;;;;;12.57;8.50;;;;;;;18.01;41.22;100174.00;10091089;29;20218;-81
2022/09/24 13:02:46;;;;;;;14.25;9.82;;;;;;;19.12;39.55;100162.41;10095919;29;20274;-78
2022/09/24 13:08:15;;;;;;;11.48;9.48;;;;;;;18.00;41.58;100167.47;10106535;29;20246;-79
2022/09/24 13:13:42;;;;;;;13.10;10.75;;;;;;;18.71;41.11;100156.78;10097332;29;20309;-81
2022/09/24 13:19:22;;;;;;;14.40;12.65;;;;;;;18.53;41.34;100161.50;10081522;29;20291;-79
2022/09/24 13:24:53;;;;;;;11.97;10.77;;;;;;;17.75;42.31;100160.66;10098289;29;20230;-79
2022/09/24 13:30:20;;;;;;;12.70;10.65;;;;;;;17.60;42.86;100154.75;10095803;29;20206;-78
2022/09/24 13:35:48;;;;;;;17.65;11.10;;;;;;;18.45;41.52;100160.63;10094478;29;20273;-85
2022/09/24 13:41:13;;;;;;;14.15;11.18;;;;;;;17.87;42.19;100166.09;10116260;29;20280;-85
2022/09/24 13:46:35;;;;;;;11.40;9.93;;;;;;;19.01;40.93;100166.00;10121597;29;20308;-79
2022/09/24 13:52:23;;;;;;;106.15;84.90;;;;;;;19.43;39.87;100163.78;10102657;29;20249;-79
2022/09/24 13:57:46;;;;;;;21.70;18.73;;;;;;;19.40;39.48;100160.50;10097970;29;20241;-80
2022/09/24 14:03:25;;;;;;;13.77;10.95;;;;;;;19.37;40.92;100160.53;10099220;29;20715;-81
2022/09/24 14:08:47;;;;;;;11.27;10.05;;;;;;;19.17;41.16;100150.59;10072714;29;20317;-80
2022/09/24 14:14:16;;;;;;;13.63;10.70;;;;;;;18.85;39.74;100158.94;10091518;29;20246;-81
2022/09/24 14:19:38;;;;;;;13.23;11.82;;;;;;;18.88;39.82;100161.78;10071680;29;20906;-83
2022/09/24 14:25:08;;;;;;;11.95;10.75;;;;;;;18.94;39.44;100163.09;10072971;29;20252;-90
2022/09/24 14:30:32;;;;;;;12.45;11.15;;;;;;;19.56;37.98;100151.63;10095289;29;20210;-82
2022/09/24 14:35:56;;;;;;;14.73;10.85;;;;;;;19.42;39.07;100165.00;10092208;29;20226;-81
2022/09/24 14:41:22;;;;;;;11.88;10.50;;;;;;;19.03;40.31;100162.75;10070949;29;20278;-83
2022/09/24 14:46:47;;;;;;;12.85;10.80;;;;;;;18.36;41.44;100162.16;10079177;29;20375;-82
2022/09/24 14:52:23;;;;;;;13.20;11.02;;;;;;;19.02;40.90;100167.63;10090881;29;20216;-81
2022/09/24 14:57:49;;;;;;;13.20;11.05;;;;;;;18.88;41.23;100173.22;10072961;29;20489;-79
2022/09/24 15:03:14;;;;;;;13.35;11.95;;;;;;;18.72;42.91;100164.13;10092025;29;20238;-80
2022/09/24 15:08:37;;;;;;;12.98;11.48;;;;;;;19.06;41.91;100169.69;10051807;29;20329;-80
2022/09/24 15:14:15;;;;;;;15.17;11.70;;;;;;;18.49;43.61;100164.31;10067913;29;20313;-79
2022/09/24 15:19:41;;;;;;;13.32;11.93;;;;;;;18.53;43.40;100161.50;10083844;29;20647;-78
2022/09/24 15:25:05;;;;;;;13.80;12.40;;;;;;;18.60;44.34;100173.00;10089230;29;20289;-78
2022/09/24 15:30:27;;;;;;;17.27;15.18;;;;;;;18.87;43.38;100171.59;10098893;29;20790;-78
2022/09/24 15:35:50;;;;;;;15.27;13.68;;;;;;;18.79;44.64;100157.66;10076316;29;20237;-81
2022/09/24 15:41:12;;;;;;;14.65;13.25;;;;;;;18.86;44.43;100158.53;10079266;29;20237;-81
2022/09/24 15:46:34;;;;;;;13.77;12.43;;;;;;;18.96;44.57;100168.41;10052911;29;20261;-80
2022/09/24 15:52:10;;;;;;;15.10;13.27;;;;;;;18.77;45.28;100166.59;10066975;29;20217;-80
2022/09/24 15:57:33;;;;;;;17.23;15.52;;;;;;;18.82;45.28;100174.81;10057924;29;20238;-81
2022/09/24 16:02:56;;;;;;;19.27;17.27;;;;;;;18.79;45.36;100171.91;10082516;29;20266;-81
2022/09/24 16:08:18;;;;;;;18.35;16.40;;;;;;;18.60;45.92;100173.00;10088242;29;20322;-81
2022/09/24 16:13:40;;;;;;;19.48;17.30;;;;;;;18.36;46.91;100173.56;10046600;29;20338;-81
2022/09/24 16:19:02;;;;;;;22.23;18.85;;;;;;;18.45;46.67;100176.94;10075257;29;21009;-80
2022/09/24 16:24:24;;;;;;;22.70;19.90;;;;;;;17.96;47.79;100180.91;10078113;29;20297;-85
2022/09/24 16:29:47;;;;;;;22.88;18.88;;;;;;;17.71;48.34;100191.16;10088347;29;20309;-80
2022/09/24 16:35:10;;;;;;;22.27;18.85;;;;;;;18.20;46.67;100188.91;10079632;29;20267;-79
2022/09/24 16:40:32;;;;;;;20.27;17.42;;;;;;;18.33;45.79;100180.91;10072461;29;20290;-80
2022/09/24 16:46:04;;;;;;;17.43;15.00;;;;;;;18.50;45.39;100176.56;10097045;29;20269;-81
2022/09/24 16:51:27;;;;;;;17.83;14.73;;;;;;;18.25;46.04;100179.97;10087165;29;20241;-81
2022/09/24 16:56:51;;;;;;;16.23;13.70;;;;;;;18.40;45.91;100183.00;10095243;29;20797;-81
2022/09/24 17:02:13;;;;;;;13.98;12.48;;;;;;;18.06;47.47;100188.75;10083892;29;20209;-83
2022/09/24 17:07:36;;;;;;;19.20;14.98;;;;;;;18.33;45.56;100190.28;10094202;29;20225;-84
2022/09/24 17:13:02;;;;;;;21.30;15.73;;;;;;;17.88;47.17;100188.53;10091988;29;20209;-83
2022/09/24 17:18:26;;;;;;;22.13;17.30;;;;;;;17.68;47.97;100207.03;10097935;29;20212;-82
2022/09/24 17:23:49;;;;;;;30.10;23.53;;;;;;;18.27;46.70;100196.69;10085093;29;20250;-79
2022/09/24 17:29:11;;;;;;;41.03;30.20;;;;;;;17.69;48.21;100216.41;10071957;29;20603;-81
2022/09/24 17:34:34;;;;;;;38.40;29.33;;;;;;;17.85;47.54;100211.28;10078760;29;20285;-78
2022/09/24 17:39:56;;;;;;;25.00;22.07;;;;;;;17.52;47.71;100210.03;10052524;29;20294;-84
2022/09/24 17:45:18;;;;;;;30.40;24.40;;;;;;;17.27;47.66;100220.25;10077323;29;20300;-80
2022/09/24 17:50:42;;;;;;;28.23;23.35;;;;;;;17.71;47.05;100216.81;10074561;29;20405;-78
2022/09/24 17:56:06;;;;;;;22.58;19.92;;;;;;;17.79;46.21;100212.84;10059468;29;20230;-80
2022/09/24 18:01:35;;;;;;;19.02;17.10;;;;;;;18.01;46.44;100209.03;10081003;29;20284;-81
2022/09/24 18:06:57;;;;;;;18.77;15.00;;;;;;;17.25;47.46;100222.66;10067831;29;20253;-79
2022/09/24 18:12:19;;;;;;;16.93;14.60;;;;;;;17.50;47.13;100226.69;10076047;29;20289;-83
2022/09/24 18:17:42;;;;;;;16.23;14.57;;;;;;;17.62;47.07;100222.81;10092446;29;20326;-83
2022/09/24 18:23:05;;;;;;;14.95;13.10;;;;;;;17.86;46.21;100219.44;10079508;29;20905;-81
2022/09/24 18:28:27;;;;;;;15.75;13.70;;;;;;;17.57;46.82;100232.50;10085679;29;20309;-83
2022/09/24 18:33:51;;;;;;;15.53;13.23;;;;;;;17.69;47.20;100239.19;10073357;29;20245;-83
2022/09/24 18:39:15;;;;;;;15.60;12.88;;;;;;;17.95;45.71;100239.13;10095185;29;20245;-81
2022/09/24 18:44:37;;;;;;;16.83;13.15;;;;;;;18.01;45.84;100243.25;10092659;29;20227;-82
2022/09/24 18:50:00;;;;;;;17.43;12.87;;;;;;;17.40;47.19;100252.19;10075632;29;20287;-82
2022/09/24 18:55:24;;;;;;;18.00;13.17;;;;;;;17.52;47.21;100254.81;10087183;29;20313;-82
2022/09/24 19:00:49;;;;;;;19.85;14.38;;;;;;;16.81;49.16;100251.59;10101469;29;20683;-81
2022/09/24 19:06:12;;;;;;;15.83;14.10;;;;;;;17.60;46.89;100256.53;10085144;29;20660;-82
2022/09/24 19:11:35;;;;;;;16.90;13.67;;;;;;;16.86;48.86;100262.69;10083058;29;20301;-82
2022/09/24 19:17:03;;;;;;;16.50;13.98;;;;;;;17.19;48.28;100269.75;10088175;29;20256;-80
2022/09/24 19:22:25;;;;;;;16.10;14.30;;;;;;;17.37;47.54;100270.88;10079560;29;20301;-81
2022/09/24 19:27:50;;;;;;;16.47;14.53;;;;;;;17.60;47.01;100268.75;10069327;29;20287;-79
2022/09/24 19:33:14;;;;;;;15.65;13.48;;;;;;;17.53;47.20;100271.53;10075996;29;20684;-80
2022/09/24 19:38:37;;;;;;;14.57;13.00;;;;;;;17.18;47.35;100273.84;10069387;29;20784;-80
2022/09/24 19:44:01;;;;;;;16.95;13.40;;;;;;;16.71;47.75;100271.34;10081467;29;20236;-82
2022/09/24 19:49:26;;;;;;;14.73;13.23;;;;;;;17.15;46.70;100266.03;10076538;29;20268;-81
2022/09/24 19:54:49;;;;;;;14.37;12.70;;;;;;;16.59;48.73;100263.81;10065252;29;20230;-82
2022/09/24 20:00:12;;;;;;;13.47;12.07;;;;;;;17.18;46.30;100274.66;10072313;29;20197;-79
2022/09/24 20:05:35;;;;;;;13.23;11.83;;;;;;;16.39;48.62;100270.75;10089496;29;20525;-80
2022/09/24 20:11:04;;;;;;;16.30;12.40;;;;;;;16.32;48.48;100273.47;10086677;29;20300;-79
2022/09/24 20:16:29;;;;;;;16.40;11.80;;;;;;;16.33;48.10;100266.56;10081028;29;20246;-83
2022/09/24 20:21:56;;;;;;;13.23;11.83;;;;;;;16.81;47.73;100262.16;10090749;29;20237;-83
2022/09/24 20:33:00;;;;;;;15.60;12.20;;;;;;;16.63;48.26;100275.28;10081303;29;20278;-80
2022/09/24 20:38:22;;;;;;;15.20;12.43;;;;;;;16.60;48.30;100279.69;10068021;29;20249;-80
2022/09/24 20:43:45;;;;;;;16.27;13.97;;;;;;;17.29;46.08;100283.38;10083420;29;20520;-80
2022/09/24 20:49:15;;;;;;;15.43;13.80;;;;;;;16.80;47.64;100275.56;10095274;29;20285;-80
2022/09/24 20:54:37;;;;;;;15.80;13.43;;;;;;;16.86;47.23;100290.31;10076075;29;20777;-80
2022/09/24 20:59:59;;;;;;;18.77;14.60;;;;;;;16.66;47.59;100283.06;10093366;29;20221;-81
2022/09/24 21:05:21;;;;;;;16.05;13.30;;;;;;;17.33;44.74;100287.06;10058486;29;20237;-81
2022/09/24 21:10:45;;;;;;;15.13;12.10;;;;;;;17.22;45.19;100286.91;10077142;29;20569;-81
2022/09/24 21:16:08;;;;;;;15.13;13.43;;;;;;;17.18;45.85;100282.38;10085345;29;20711;-81
2022/09/24 21:21:33;;;;;;;15.00;13.40;;;;;;;17.35;45.01;100287.50;10071746;29;20241;-82
2022/09/24 21:26:57;;;;;;;17.33;13.77;;;;;;;17.15;46.19;100285.97;10060279;29;20262;-82
2022/09/24 21:32:19;;;;;;;17.37;13.83;;;;;;;16.55;47.85;100285.69;10074931;29;20234;-80
2022/09/24 21:37:41;;;;;;;16.93;14.70;;;;;;;16.50;48.62;100294.53;10070708;29;20238;-80
2022/09/24 21:43:05;;;;;;;16.17;14.05;;;;;;;16.83;47.15;100303.28;10053594;29;20233;-81
2022/09/24 21:48:28;;;;;;;20.57;15.03;;;;;;;16.75;47.58;100303.56;10059851;29;20265;-81
2022/09/24 21:53:53;;;;;;;17.90;15.37;;;;;;;17.02;46.99;100304.47;10068197;29;20295;-80
2022/09/24 22:04:56;;;;;;;17.25;15.32;;;;;;;16.66;48.21;100303.81;10072056;29;20274;-81
2022/09/24 22:10:18;;;;;;;16.33;14.30;;;;;;;16.88;47.13;100300.13;10102120;29;20257;-80
2022/09/24 22:15:43;;;;;;;18.50;15.27;;;;;;;16.59;47.86;100306.50;10080588;29;20313;-80
2022/09/24 22:21:07;;;;;;;16.73;14.93;;;;;;;16.52;47.69;100297.84;10130510;29;20206;-80
2022/09/24 22:26:29;;;;;;;17.73;15.80;;;;;;;16.62;48.44;100296.41;10103464;29;20277;-81
2022/09/24 22:31:51;;;;;;;18.40;14.97;;;;;;;16.24;48.96;100302.97;10130872;29;20249;-80
2022/09/24 22:37:13;;;;;;;17.73;15.07;;;;;;;16.28;49.20;100290.44;10128779;29;20667;-81
2022/09/24 22:42:35;;;;;;;20.90;16.97;;;;;;;16.59;48.71;100292.28;10113764;29;20274;-81
2022/09/24 22:47:58;;;;;;;20.97;17.40;;;;;;;15.92;50.04;100294.53;10111875;29;20266;-81
2022/09/24 22:53:20;;;;;;;13.87;12.43;;;;;;;16.26;48.57;100306.25;10099022;29;20205;-81
2022/09/24 22:58:44;;;;;;;20.20;17.50;;;;;;;16.88;47.34;100303.00;10124836;29;20221;-80
2022/09/24 23:04:06;;;;;;;19.65;17.05;;;;;;;16.64;47.94;100299.69;10089687;29;20206;-81
2022/09/24 23:09:28;;;;;;;20.17;17.60;;;;;;;15.98;50.43;100306.44;10081022;29;20374;-80
2022/09/24 23:14:51;;;;;;;18.80;16.80;;;;;;;16.27;48.20;100303.03;10110919;29;20254;-80
2022/09/24 23:20:13;;;;;;;20.03;17.57;;;;;;;16.01;49.08;100294.34;10086182;29;20266;-81
2022/09/24 23:25:35;;;;;;;20.70;18.10;;;;;;;16.74;47.41;100288.50;10097475;29;20266;-81
2022/09/24 23:30:58;;;;;;;24.07;18.33;;;;;;;16.78;47.02;100294.25;10087923;29;20245;-81
2022/09/24 23:36:20;;;;;;;25.83;18.43;;;;;;;16.76;47.32;100290.97;10097671;29;20691;-81
2022/09/24 23:41:43;;;;;;;21.43;17.53;;;;;;;16.57;47.53;100294.66;10079300;29;20277;-81
2022/09/24 23:47:05;;;;;;;19.17;14.57;;;;;;;16.99;46.25;100293.84;10090160;29;20812;-81
2022/09/24 23:52:27;;;;;;;13.52;10.82;;;;;;;16.69;47.02;100290.81;10097092;29;20596;-81
2022/09/24 23:57:49;;;;;;;17.10;12.20;;;;;;;15.92;48.49;100308.75;10082769;29;20258;-81
